sensor_id;sensor_type;location;lat;lon;timestamp;pressure;altitude;pressure_sealevel;temperature;humidity
48630;BME280;34426;52.180;4.462;2023-06-10T00:01:50;101522.16;;;21.94;50.08
48630;BME280;34426;52.180;4.462;2023-06-10T00:04:18;101519.81;;;21.96;50.40
48630;BME280;34426;52.180;4.462;2023-06-10T00:06:45;101521.50;;;21.97;50.67
48630;BME280;34426;52.180;4.462;2023-06-10T00:09:15;101525.50;;;21.96;50.10
48630;BME280;34426;52.180;4.462;2023-06-10T00:11:42;101520.97;;;21.95;50.25
48630;BME280;34426;52.180;4.462;2023-06-10T00:14:10;101532.50;;;21.89;50.45
48630;BME280;34426;52.180;4.462;2023-06-10T00:16:37;101524.25;;;21.79;50.39
48630;BME280;34426;52.180;4.462;2023-06-10T00:19:05;101529.06;;;21.70;51.51
48630;BME280;34426;52.180;4.462;2023-06-10T00:21:34;101518.31;;;21.67;51.22
48630;BME280;34426;52.180;4.462;2023-06-10T00:24:01;101517.97;;;21.60;50.78
48630;BME280;34426;52.180;4.462;2023-06-10T00:26:31;101522.31;;;21.57;51.17
48630;BME280;34426;52.180;4.462;2023-06-10T00:28:59;101527.75;;;21.45;51.47
48630;BME280;34426;52.180;4.462;2023-06-10T00:31:26;101520.25;;;21.49;51.48
48630;BME280;34426;52.180;4.462;2023-06-10T00:33:54;101517.41;;;21.49;51.42
48630;BME280;34426;52.180;4.462;2023-06-10T00:36:22;101523.59;;;21.51;51.36
48630;BME280;34426;52.180;4.462;2023-06-10T00:38:50;101519.53;;;21.44;51.35
48630;BME280;34426;52.180;4.462;2023-06-10T00:41:17;101525.34;;;21.39;51.68
48630;BME280;34426;52.180;4.462;2023-06-10T00:43:47;101516.81;;;21.39;51.61
48630;BME280;34426;52.180;4.462;2023-06-10T00:46:15;101519.72;;;21.25;52.01
48630;BME280;34426;52.180;4.462;2023-06-10T00:48:44;101517.91;;;21.29;51.85
48630;BME280;34426;52.180;4.462;2023-06-10T00:51:12;101529.09;;;21.25;52.09
48630;BME280;34426;52.180;4.462;2023-06-10T00:53:41;101525.88;;;21.18;52.11
48630;BME280;34426;52.180;4.462;2023-06-10T00:56:08;101524.13;;;21.09;52.46
48630;BME280;34426;52.180;4.462;2023-06-10T00:58:36;101526.97;;;21.09;52.49
48630;BME280;34426;52.180;4.462;2023-06-10T01:01:06;101520.16;;;20.96;53.14
48630;BME280;34426;52.180;4.462;2023-06-10T01:03:34;101534.38;;;20.96;52.79
48630;BME280;34426;52.180;4.462;2023-06-10T01:06:08;101525.84;;;20.96;52.29
48630;BME280;34426;52.180;4.462;2023-06-10T01:08:41;101533.47;;;20.87;52.67
48630;BME280;34426;52.180;4.462;2023-06-10T01:11:16;101523.34;;;20.81;52.98
48630;BME280;34426;52.180;4.462;2023-06-10T01:13:46;101525.94;;;20.69;53.05
48630;BME280;34426;52.180;4.462;2023-06-10T01:16:17;101526.69;;;20.74;53.20
48630;BME280;34426;52.180;4.462;2023-06-10T01:18:45;101527.63;;;20.70;53.27
48630;BME280;34426;52.180;4.462;2023-06-10T01:21:19;101526.59;;;20.66;53.10
48630;BME280;34426;52.180;4.462;2023-06-10T01:23:46;101535.75;;;20.63;52.88
48630;BME280;34426;52.180;4.462;2023-06-10T01:26:14;101534.81;;;20.53;53.19
48630;BME280;34426;52.180;4.462;2023-06-10T01:28:47;101538.28;;;20.50;53.06
48630;BME280;34426;52.180;4.462;2023-06-10T01:31:17;101538.81;;;20.52;53.19
48630;BME280;34426;52.180;4.462;2023-06-10T01:33:49;101529.66;;;20.55;52.71
48630;BME280;34426;52.180;4.462;2023-06-10T01:36:23;101526.41;;;20.48;52.95
48630;BME280;34426;52.180;4.462;2023-06-10T01:38:53;101536.28;;;20.37;53.77
48630;BME280;34426;52.180;4.462;2023-06-10T01:41:21;101528.91;;;20.36;53.44
48630;BME280;34426;52.180;4.462;2023-06-10T01:43:49;101531.03;;;20.31;53.68
48630;BME280;34426;52.180;4.462;2023-06-10T01:46:17;101526.19;;;20.31;53.42
48630;BME280;34426;52.180;4.462;2023-06-10T01:48:45;101532.63;;;20.23;53.79
48630;BME280;34426;52.180;4.462;2023-06-10T01:51:12;101530.72;;;20.18;53.53
48630;BME280;34426;52.180;4.462;2023-06-10T01:53:41;101534.19;;;20.15;53.78
48630;BME280;34426;52.180;4.462;2023-06-10T01:56:09;101526.72;;;20.06;53.87
48630;BME280;34426;52.180;4.462;2023-06-10T01:58:36;101528.72;;;20.05;53.85
48630;BME280;34426;52.180;4.462;2023-06-10T02:01:04;101533.88;;;20.03;53.83
48630;BME280;34426;52.180;4.462;2023-06-10T02:03:31;101531.03;;;20.03;53.75
48630;BME280;34426;52.180;4.462;2023-06-10T02:05:59;101531.97;;;19.99;53.93
48630;BME280;34426;52.180;4.462;2023-06-10T02:08:27;101534.41;;;19.91;54.05
48630;BME280;34426;52.180;4.462;2023-06-10T02:10:57;101532.84;;;19.85;54.03
48630;BME280;34426;52.180;4.462;2023-06-10T02:13:24;101541.75;;;19.79;54.25
48630;BME280;34426;52.180;4.462;2023-06-10T02:15:51;101540.91;;;19.78;53.92
48630;BME280;34426;52.180;4.462;2023-06-10T02:18:19;101537.03;;;19.74;53.99
48630;BME280;34426;52.180;4.462;2023-06-10T02:20:46;101540.50;;;19.71;53.62
48630;BME280;34426;52.180;4.462;2023-06-10T02:23:14;101541.72;;;19.65;54.17
48630;BME280;34426;52.180;4.462;2023-06-10T02:25:41;101536.78;;;19.57;54.13
48630;BME280;34426;52.180;4.462;2023-06-10T02:28:11;101541.06;;;19.54;54.03
48630;BME280;34426;52.180;4.462;2023-06-10T02:30:40;101539.59;;;19.57;53.62
48630;BME280;34426;52.180;4.462;2023-06-10T02:33:07;101538.31;;;19.49;53.69
48630;BME280;34426;52.180;4.462;2023-06-10T02:35:35;101542.97;;;19.59;53.44
48630;BME280;34426;52.180;4.462;2023-06-10T02:38:03;101541.28;;;19.58;53.22
48630;BME280;34426;52.180;4.462;2023-06-10T02:40:31;101541.97;;;19.50;53.66
48630;BME280;34426;52.180;4.462;2023-06-10T02:42:59;101548.38;;;19.42;53.85
48630;BME280;34426;52.180;4.462;2023-06-10T02:45:28;101539.88;;;19.42;53.94
48630;BME280;34426;52.180;4.462;2023-06-10T02:47:55;101539.13;;;19.36;54.29
48630;BME280;34426;52.180;4.462;2023-06-10T02:50:23;101544.13;;;19.25;54.58
48630;BME280;34426;52.180;4.462;2023-06-10T02:52:50;101538.91;;;19.33;54.48
48630;BME280;34426;52.180;4.462;2023-06-10T02:55:17;101542.88;;;19.32;54.67
48630;BME280;34426;52.180;4.462;2023-06-10T02:57:45;101545.28;;;19.24;54.61
48630;BME280;34426;52.180;4.462;2023-06-10T03:00:13;101544.34;;;19.29;54.64
48630;BME280;34426;52.180;4.462;2023-06-10T03:02:43;101542.75;;;19.23;54.83
48630;BME280;34426;52.180;4.462;2023-06-10T03:05:10;101540.53;;;19.20;54.98
48630;BME280;34426;52.180;4.462;2023-06-10T03:07:37;101536.09;;;19.14;55.32
48630;BME280;34426;52.180;4.462;2023-06-10T03:10:06;101545.31;;;19.06;55.23
48630;BME280;34426;52.180;4.462;2023-06-10T03:12:33;101537.97;;;19.05;55.54
48630;BME280;34426;52.180;4.462;2023-06-10T03:15:01;101545.09;;;19.02;55.59
48630;BME280;34426;52.180;4.462;2023-06-10T03:17:28;101539.84;;;19.09;55.58
48630;BME280;34426;52.180;4.462;2023-06-10T03:19:58;101546.47;;;19.05;55.86
48630;BME280;34426;52.180;4.462;2023-06-10T03:22:26;101537.50;;;18.98;56.32
48630;BME280;34426;52.180;4.462;2023-06-10T03:24:54;101537.88;;;18.91;56.40
48630;BME280;34426;52.180;4.462;2023-06-10T03:27:21;101542.41;;;18.92;56.42
48630;BME280;34426;52.180;4.462;2023-06-10T03:29:49;101540.41;;;18.92;56.32
48630;BME280;34426;52.180;4.462;2023-06-10T03:32:16;101542.25;;;18.83;56.68
48630;BME280;34426;52.180;4.462;2023-06-10T03:34:44;101552.97;;;18.86;56.45
48630;BME280;34426;52.180;4.462;2023-06-10T03:37:13;101553.28;;;18.85;56.77
48630;BME280;34426;52.180;4.462;2023-06-10T03:39:40;101552.53;;;18.79;57.13
48630;BME280;34426;52.180;4.462;2023-06-10T03:42:08;101555.28;;;18.84;56.96
48630;BME280;34426;52.180;4.462;2023-06-10T03:44:35;101553.38;;;18.80;56.86
48630;BME280;34426;52.180;4.462;2023-06-10T03:47:03;101567.00;;;18.78;57.42
48630;BME280;34426;52.180;4.462;2023-06-10T03:49:30;101567.91;;;18.73;57.40
48630;BME280;34426;52.180;4.462;2023-06-10T03:51:57;101564.78;;;18.75;57.41
48630;BME280;34426;52.180;4.462;2023-06-10T03:54:27;101569.00;;;18.77;57.57
48630;BME280;34426;52.180;4.462;2023-06-10T03:56:54;101563.69;;;18.71;57.61
48630;BME280;34426;52.180;4.462;2023-06-10T03:59:21;101566.38;;;18.81;57.83
48630;BME280;34426;52.180;4.462;2023-06-10T04:01:49;101567.00;;;18.78;57.92
48630;BME280;34426;52.180;4.462;2023-06-10T04:04:16;101572.13;;;18.76;58.19
48630;BME280;34426;52.180;4.462;2023-06-10T04:06:43;101573.34;;;18.70;58.12
48630;BME280;34426;52.180;4.462;2023-06-10T04:09:11;101568.81;;;18.69;58.44
48630;BME280;34426;52.180;4.462;2023-06-10T04:11:41;101564.84;;;18.70;58.57
48630;BME280;34426;52.180;4.462;2023-06-10T04:14:09;101573.59;;;18.73;58.84
48630;BME280;34426;52.180;4.462;2023-06-10T04:16:36;101570.44;;;18.75;58.56
48630;BME280;34426;52.180;4.462;2023-06-10T04:19:03;101575.63;;;18.68;58.96
48630;BME280;34426;52.180;4.462;2023-06-10T04:21:31;101571.97;;;18.67;59.17
48630;BME280;34426;52.180;4.462;2023-06-10T04:23:59;101574.97;;;18.76;59.19
48630;BME280;34426;52.180;4.462;2023-06-10T04:26:26;101588.59;;;18.74;59.39
48630;BME280;34426;52.180;4.462;2023-06-10T04:28:55;101587.38;;;18.80;59.66
48630;BME280;34426;52.180;4.462;2023-06-10T04:31:23;101595.09;;;18.74;59.67
48630;BME280;34426;52.180;4.462;2023-06-10T04:33:50;101595.34;;;18.78;59.45
48630;BME280;34426;52.180;4.462;2023-06-10T04:36:18;101591.34;;;18.79;59.43
48630;BME280;34426;52.180;4.462;2023-06-10T04:38:45;101596.41;;;18.82;59.48
48630;BME280;34426;52.180;4.462;2023-06-10T04:41:13;101598.56;;;18.90;59.35
48630;BME280;34426;52.180;4.462;2023-06-10T04:43:40;101596.34;;;18.87;59.65
48630;BME280;34426;52.180;4.462;2023-06-10T04:46:09;101605.41;;;18.89;59.60
48630;BME280;34426;52.180;4.462;2023-06-10T04:48:36;101599.19;;;18.87;59.62
48630;BME280;34426;52.180;4.462;2023-06-10T04:51:03;101601.72;;;18.88;59.73
48630;BME280;34426;52.180;4.462;2023-06-10T04:53:31;101597.97;;;18.93;59.75
48630;BME280;34426;52.180;4.462;2023-06-10T04:55:58;101600.13;;;19.01;59.35
48630;BME280;34426;52.180;4.462;2023-06-10T04:58:25;101603.03;;;18.96;59.75
48630;BME280;34426;52.180;4.462;2023-06-10T05:00:53;101597.19;;;19.06;59.55
48630;BME280;34426;52.180;4.462;2023-06-10T05:03:22;101594.56;;;19.10;59.43
48630;BME280;34426;52.180;4.462;2023-06-10T05:05:49;101593.72;;;19.09;59.42
48630;BME280;34426;52.180;4.462;2023-06-10T05:08:17;101604.75;;;19.11;59.49
48630;BME280;34426;52.180;4.462;2023-06-10T05:10:43;101602.22;;;19.09;59.72
48630;BME280;34426;52.180;4.462;2023-06-10T05:13:11;101596.50;;;19.14;59.70
48630;BME280;34426;52.180;4.462;2023-06-10T05:15:38;101598.63;;;19.22;59.86
48630;BME280;34426;52.180;4.462;2023-06-10T05:18:05;101594.56;;;19.28;59.60
48630;BME280;34426;52.180;4.462;2023-06-10T05:20:35;101597.00;;;19.35;59.13
48630;BME280;34426;52.180;4.462;2023-06-10T05:23:02;101596.47;;;19.33;59.54
48630;BME280;34426;52.180;4.462;2023-06-10T05:25:31;101593.88;;;19.37;59.07
48630;BME280;34426;52.180;4.462;2023-06-10T05:27:58;101604.06;;;19.38;58.91
48630;BME280;34426;52.180;4.462;2023-06-10T05:30:26;101596.53;;;19.47;59.03
48630;BME280;34426;52.180;4.462;2023-06-10T05:32:53;101603.91;;;19.48;59.03
48630;BME280;34426;52.180;4.462;2023-06-10T05:35:20;101597.91;;;19.49;58.81
48630;BME280;34426;52.180;4.462;2023-06-10T05:37:49;101607.31;;;19.64;58.61
48630;BME280;34426;52.180;4.462;2023-06-10T05:40:17;101611.53;;;19.66;58.51
48630;BME280;34426;52.180;4.462;2023-06-10T05:42:44;101606.94;;;19.70;58.66
48630;BME280;34426;52.180;4.462;2023-06-10T05:45:12;101604.84;;;19.76;58.53
48630;BME280;34426;52.180;4.462;2023-06-10T05:47:40;101611.38;;;19.76;58.42
48630;BME280;34426;52.180;4.462;2023-06-10T05:50:08;101605.59;;;19.81;58.21
48630;BME280;34426;52.180;4.462;2023-06-10T05:52:35;101614.34;;;19.85;58.06
48630;BME280;34426;52.180;4.462;2023-06-10T05:55:05;101614.44;;;19.93;58.22
48630;BME280;34426;52.180;4.462;2023-06-10T05:57:34;101617.94;;;20.04;58.34
48630;BME280;34426;52.180;4.462;2023-06-10T06:00:02;101617.63;;;20.06;58.80
48630;BME280;34426;52.180;4.462;2023-06-10T06:02:29;101616.28;;;20.17;58.22
48630;BME280;34426;52.180;4.462;2023-06-10T06:04:56;101611.66;;;20.21;57.58
48630;BME280;34426;52.180;4.462;2023-06-10T06:07:24;101615.53;;;20.25;57.77
48630;BME280;34426;52.180;4.462;2023-06-10T06:09:51;101621.13;;;20.30;57.72
48630;BME280;34426;52.180;4.462;2023-06-10T06:12:20;101613.34;;;20.36;57.39
48630;BME280;34426;52.180;4.462;2023-06-10T06:14:48;101612.50;;;20.35;57.03
48630;BME280;34426;52.180;4.462;2023-06-10T06:17:15;101611.78;;;20.43;56.93
48630;BME280;34426;52.180;4.462;2023-06-10T06:19:43;101612.81;;;20.47;56.75
48630;BME280;34426;52.180;4.462;2023-06-10T06:22:10;101616.19;;;20.49;56.96
48630;BME280;34426;52.180;4.462;2023-06-10T06:24:38;101621.78;;;20.54;57.30
48630;BME280;34426;52.180;4.462;2023-06-10T06:27:05;101623.88;;;20.63;56.99
48630;BME280;34426;52.180;4.462;2023-06-10T06:29:34;101620.19;;;20.76;56.80
48630;BME280;34426;52.180;4.462;2023-06-10T06:32:02;101618.88;;;20.82;56.47
48630;BME280;34426;52.180;4.462;2023-06-10T06:34:29;101623.09;;;20.84;56.66
48630;BME280;34426;52.180;4.462;2023-06-10T06:36:57;101608.66;;;20.81;57.06
48630;BME280;34426;52.180;4.462;2023-06-10T06:39:24;101611.19;;;20.96;57.26
48630;BME280;34426;52.180;4.462;2023-06-10T06:41:52;101623.50;;;21.05;56.23
48630;BME280;34426;52.180;4.462;2023-06-10T06:44:19;101621.28;;;21.02;56.30
48630;BME280;34426;52.180;4.462;2023-06-10T06:46:48;101630.66;;;21.03;57.60
48630;BME280;34426;52.180;4.462;2023-06-10T06:49:16;101630.97;;;21.01;56.89
48630;BME280;34426;52.180;4.462;2023-06-10T06:51:43;101626.13;;;21.02;56.51
48630;BME280;34426;52.180;4.462;2023-06-10T06:54:10;101624.66;;;21.04;56.23
48630;BME280;34426;52.180;4.462;2023-06-10T06:56:38;101627.38;;;21.09;56.89
48630;BME280;34426;52.180;4.462;2023-06-10T06:59:05;101635.69;;;21.19;57.04
48630;BME280;34426;52.180;4.462;2023-06-10T07:01:34;101632.59;;;21.30;57.46
48630;BME280;34426;52.180;4.462;2023-06-10T07:04:03;101632.34;;;21.40;57.20
48630;BME280;34426;52.180;4.462;2023-06-10T07:06:30;101633.28;;;21.49;56.42
48630;BME280;34426;52.180;4.462;2023-06-10T07:08:58;101632.31;;;21.53;56.63
48630;BME280;34426;52.180;4.462;2023-06-10T07:11:26;101627.97;;;21.56;54.05
48630;BME280;34426;52.180;4.462;2023-06-10T07:13:53;101638.06;;;21.62;55.07
48630;BME280;34426;52.180;4.462;2023-06-10T07:16:21;101631.22;;;21.63;55.81
48630;BME280;34426;52.180;4.462;2023-06-10T07:18:48;101638.31;;;21.74;55.58
48630;BME280;34426;52.180;4.462;2023-06-10T07:21:18;101631.00;;;21.82;54.53
48630;BME280;34426;52.180;4.462;2023-06-10T07:23:45;101634.03;;;21.85;53.50
48630;BME280;34426;52.180;4.462;2023-06-10T07:26:13;101636.09;;;21.94;53.89
48630;BME280;34426;52.180;4.462;2023-06-10T07:28:41;101639.03;;;22.02;54.20
48630;BME280;34426;52.180;4.462;2023-06-10T07:31:09;101635.03;;;22.12;54.19
48630;BME280;34426;52.180;4.462;2023-06-10T07:33:36;101630.22;;;22.21;53.55
48630;BME280;34426;52.180;4.462;2023-06-10T07:36:04;101632.94;;;22.26;53.03
48630;BME280;34426;52.180;4.462;2023-06-10T07:38:33;101627.44;;;22.30;53.30
48630;BME280;34426;52.180;4.462;2023-06-10T07:41:01;101635.69;;;22.40;53.13
48630;BME280;34426;52.180;4.462;2023-06-10T07:43:28;101632.38;;;22.46;53.32
48630;BME280;34426;52.180;4.462;2023-06-10T07:45:55;101632.22;;;22.51;53.12
48630;BME280;34426;52.180;4.462;2023-06-10T07:48:23;101635.41;;;22.58;52.43
48630;BME280;34426;52.180;4.462;2023-06-10T07:50:50;101636.63;;;22.66;52.55
48630;BME280;34426;52.180;4.462;2023-06-10T07:53:17;101632.44;;;22.72;52.00
48630;BME280;34426;52.180;4.462;2023-06-10T07:55:46;101631.44;;;22.77;51.95
48630;BME280;34426;52.180;4.462;2023-06-10T07:58:14;101634.19;;;22.82;51.91
48630;BME280;34426;52.180;4.462;2023-06-10T08:00:41;101640.91;;;22.86;51.82
48630;BME280;34426;52.180;4.462;2023-06-10T08:03:09;101630.84;;;22.97;52.80
48630;BME280;34426;52.180;4.462;2023-06-10T08:05:36;101631.53;;;23.03;51.58
48630;BME280;34426;52.180;4.462;2023-06-10T08:08:04;101636.91;;;23.04;51.63
48630;BME280;34426;52.180;4.462;2023-06-10T08:10:31;101635.56;;;23.10;51.35
48630;BME280;34426;52.180;4.462;2023-06-10T08:13:00;101638.25;;;23.15;53.18
48630;BME280;34426;52.180;4.462;2023-06-10T08:15:28;101635.94;;;23.26;52.29
48630;BME280;34426;52.180;4.462;2023-06-10T08:17:55;101642.81;;;23.34;52.69
48630;BME280;34426;52.180;4.462;2023-06-10T08:20:23;101640.28;;;23.41;51.77
48630;BME280;34426;52.180;4.462;2023-06-10T08:22:50;101635.41;;;23.50;52.07
48630;BME280;34426;52.180;4.462;2023-06-10T08:25:17;101642.66;;;23.56;51.36
48630;BME280;34426;52.180;4.462;2023-06-10T08:27:45;101639.47;;;23.66;51.04
48630;BME280;34426;52.180;4.462;2023-06-10T08:30:14;101632.41;;;23.72;50.47
48630;BME280;34426;52.180;4.462;2023-06-10T08:32:41;101635.94;;;23.78;50.57
48630;BME280;34426;52.180;4.462;2023-06-10T08:35:09;101635.88;;;23.86;50.70
48630;BME280;34426;52.180;4.462;2023-06-10T08:37:37;101633.84;;;23.96;51.85
48630;BME280;34426;52.180;4.462;2023-06-10T08:40:04;101641.75;;;24.07;52.81
48630;BME280;34426;52.180;4.462;2023-06-10T08:42:36;101638.88;;;24.16;51.50
48630;BME280;34426;52.180;4.462;2023-06-10T08:45:08;101631.78;;;24.22;50.08
48630;BME280;34426;52.180;4.462;2023-06-10T08:47:42;101636.31;;;24.23;51.19
48630;BME280;34426;52.180;4.462;2023-06-10T08:50:12;101638.50;;;24.26;50.84
48630;BME280;34426;52.180;4.462;2023-06-10T08:52:42;101638.97;;;24.37;49.82
48630;BME280;34426;52.180;4.462;2023-06-10T08:55:12;101637.75;;;24.46;50.22
48630;BME280;34426;52.180;4.462;2023-06-10T08:57:42;101635.22;;;24.53;51.38
48630;BME280;34426;52.180;4.462;2023-06-10T09:00:10;101638.03;;;24.62;49.37
48630;BME280;34426;52.180;4.462;2023-06-10T09:02:40;101651.09;;;24.72;49.68
48630;BME280;34426;52.180;4.462;2023-06-10T09:05:09;101655.59;;;24.81;51.73
48630;BME280;34426;52.180;4.462;2023-06-10T09:07:36;101647.16;;;24.85;49.70
48630;BME280;34426;52.180;4.462;2023-06-10T09:10:04;101642.91;;;24.91;49.40
48630;BME280;34426;52.180;4.462;2023-06-10T09:12:33;101641.34;;;25.02;49.80
48630;BME280;34426;52.180;4.462;2023-06-10T09:15:00;101641.69;;;25.01;49.81
48630;BME280;34426;52.180;4.462;2023-06-10T09:17:28;101647.72;;;25.08;49.41
48630;BME280;34426;52.180;4.462;2023-06-10T09:19:59;101647.91;;;25.24;48.98
48630;BME280;34426;52.180;4.462;2023-06-10T09:22:26;101646.03;;;25.28;48.73
48630;BME280;34426;52.180;4.462;2023-06-10T09:25:03;101643.53;;;25.47;47.69
48630;BME280;34426;52.180;4.462;2023-06-10T09:27:31;101643.56;;;25.59;48.60
48630;BME280;34426;52.180;4.462;2023-06-10T09:29:59;101643.41;;;25.64;48.34
48630;BME280;34426;52.180;4.462;2023-06-10T09:32:27;101645.34;;;25.72;45.82
48630;BME280;34426;52.180;4.462;2023-06-10T09:34:57;101651.13;;;25.84;46.93
48630;BME280;34426;52.180;4.462;2023-06-10T09:37:25;101645.88;;;25.87;45.92
48630;BME280;34426;52.180;4.462;2023-06-10T09:40:06;101641.28;;;26.06;47.51
48630;BME280;34426;52.180;4.462;2023-06-10T09:42:33;101641.66;;;26.17;47.60
48630;BME280;34426;52.180;4.462;2023-06-10T09:45:01;101640.88;;;26.29;46.05
48630;BME280;34426;52.180;4.462;2023-06-10T09:47:28;101644.38;;;26.34;47.06
48630;BME280;34426;52.180;4.462;2023-06-10T09:49:58;101649.63;;;26.32;45.33
48630;BME280;34426;52.180;4.462;2023-06-10T09:52:26;101646.28;;;26.55;45.10
48630;BME280;34426;52.180;4.462;2023-06-10T09:54:55;101639.09;;;26.48;45.64
48630;BME280;34426;52.180;4.462;2023-06-10T09:57:25;101640.78;;;26.49;46.77
48630;BME280;34426;52.180;4.462;2023-06-10T09:59:54;101638.53;;;26.55;44.38
48630;BME280;34426;52.180;4.462;2023-06-10T10:02:22;101635.06;;;26.74;43.17
48630;BME280;34426;52.180;4.462;2023-06-10T10:04:50;101640.34;;;26.96;44.17
48630;BME280;34426;52.180;4.462;2023-06-10T10:07:19;101638.66;;;27.07;45.11
48630;BME280;34426;52.180;4.462;2023-06-10T10:09:47;101643.41;;;27.28;42.00
48630;BME280;34426;52.180;4.462;2023-06-10T10:12:17;101641.47;;;27.32;44.88
48630;BME280;34426;52.180;4.462;2023-06-10T10:14:46;101643.22;;;27.48;44.69
48630;BME280;34426;52.180;4.462;2023-06-10T10:17:15;101640.09;;;27.54;41.41
48630;BME280;34426;52.180;4.462;2023-06-10T10:19:48;101630.63;;;27.65;41.02
48630;BME280;34426;52.180;4.462;2023-06-10T10:22:23;101633.13;;;27.67;42.33
48630;BME280;34426;52.180;4.462;2023-06-10T10:24:55;101634.47;;;27.85;40.03
48630;BME280;34426;52.180;4.462;2023-06-10T10:27:28;101629.56;;;27.86;40.55
48630;BME280;34426;52.180;4.462;2023-06-10T10:29:55;101628.91;;;27.92;40.91
48630;BME280;34426;52.180;4.462;2023-06-10T10:32:29;101624.38;;;27.91;40.83
48630;BME280;34426;52.180;4.462;2023-06-10T10:35:05;101630.38;;;28.14;40.91
48630;BME280;34426;52.180;4.462;2023-06-10T10:37:36;101624.94;;;28.40;39.58
48630;BME280;34426;52.180;4.462;2023-06-10T10:40:05;101621.59;;;28.38;40.20
48630;BME280;34426;52.180;4.462;2023-06-10T10:42:33;101625.78;;;28.57;40.49
48630;BME280;34426;52.180;4.462;2023-06-10T10:45:01;101620.03;;;28.57;38.12
48630;BME280;34426;52.180;4.462;2023-06-10T10:47:32;101621.22;;;28.56;39.00
48630;BME280;34426;52.180;4.462;2023-06-10T10:50:00;101619.59;;;28.74;40.07
48630;BME280;34426;52.180;4.462;2023-06-10T10:52:28;101616.66;;;28.86;38.76
48630;BME280;34426;52.180;4.462;2023-06-10T10:55:15;101622.91;;;29.07;39.71
48630;BME280;34426;52.180;4.462;2023-06-10T10:57:42;101623.84;;;29.11;40.18
48630;BME280;34426;52.180;4.462;2023-06-10T11:00:11;101617.59;;;29.09;39.33
48630;BME280;34426;52.180;4.462;2023-06-10T11:02:41;101620.66;;;29.17;36.65
48630;BME280;34426;52.180;4.462;2023-06-10T11:05:09;101611.94;;;29.13;37.91
48630;BME280;34426;52.180;4.462;2023-06-10T11:07:37;101614.41;;;28.95;39.19
48630;BME280;34426;52.180;4.462;2023-06-10T11:10:07;101612.31;;;29.11;37.89
48630;BME280;34426;52.180;4.462;2023-06-10T11:12:53;101616.06;;;29.31;38.24
48630;BME280;34426;52.180;4.462;2023-06-10T11:15:22;101606.28;;;29.36;37.41
48630;BME280;34426;52.180;4.462;2023-06-10T11:18:14;101607.91;;;29.18;39.25
48630;BME280;34426;52.180;4.462;2023-06-10T11:20:58;101604.06;;;29.45;37.65
48630;BME280;34426;52.180;4.462;2023-06-10T11:23:43;101608.19;;;29.48;37.05
48630;BME280;34426;52.180;4.462;2023-06-10T11:26:14;101601.69;;;29.51;36.42
48630;BME280;34426;52.180;4.462;2023-06-10T11:29:06;101611.94;;;29.67;36.04
48630;BME280;34426;52.180;4.462;2023-06-10T11:31:38;101599.19;;;29.68;38.38
48630;BME280;34426;52.180;4.462;2023-06-10T11:34:06;101592.94;;;29.66;38.06
48630;BME280;34426;52.180;4.462;2023-06-10T11:36:34;101594.63;;;29.67;37.12
48630;BME280;34426;52.180;4.462;2023-06-10T11:39:04;101599.16;;;29.88;36.33
48630;BME280;34426;52.180;4.462;2023-06-10T11:41:32;101599.06;;;30.03;35.86
48630;BME280;34426;52.180;4.462;2023-06-10T11:44:02;101591.72;;;29.87;35.05
48630;BME280;34426;52.180;4.462;2023-06-10T11:46:32;101592.75;;;29.98;37.81
48630;BME280;34426;52.180;4.462;2023-06-10T11:49:00;101580.81;;;30.19;40.12
48630;BME280;34426;52.180;4.462;2023-06-10T11:51:28;101587.66;;;30.33;36.12
48630;BME280;34426;52.180;4.462;2023-06-10T11:53:56;101593.13;;;30.16;33.98
48630;BME280;34426;52.180;4.462;2023-06-10T11:56:25;101583.75;;;30.22;36.57
48630;BME280;34426;52.180;4.462;2023-06-10T11:58:56;101587.72;;;30.37;33.75
48630;BME280;34426;52.180;4.462;2023-06-10T12:01:28;101580.09;;;30.25;34.85
48630;BME280;34426;52.180;4.462;2023-06-10T12:04:01;101580.53;;;30.50;35.59
48630;BME280;34426;52.180;4.462;2023-06-10T12:06:37;101575.59;;;30.51;34.83
48630;BME280;34426;52.180;4.462;2023-06-10T12:09:05;101561.28;;;30.58;34.87
48630;BME280;34426;52.180;4.462;2023-06-10T12:11:33;101574.97;;;30.61;34.97
48630;BME280;34426;52.180;4.462;2023-06-10T12:14:01;101571.06;;;30.76;34.08
48630;BME280;34426;52.180;4.462;2023-06-10T12:16:28;101566.03;;;30.69;33.85
48630;BME280;34426;52.180;4.462;2023-06-10T12:19:04;101558.66;;;30.72;34.65
48630;BME280;34426;52.180;4.462;2023-06-10T12:21:31;101567.75;;;30.74;32.97
48630;BME280;34426;52.180;4.462;2023-06-10T12:24:07;101566.28;;;30.87;32.58
48630;BME280;34426;52.180;4.462;2023-06-10T12:26:42;101563.84;;;30.89;32.68
48630;BME280;34426;52.180;4.462;2023-06-10T12:29:22;101559.84;;;30.97;32.54
48630;BME280;34426;52.180;4.462;2023-06-10T12:32:00;101558.19;;;31.26;31.78
48630;BME280;34426;52.180;4.462;2023-06-10T12:34:36;101563.09;;;31.52;31.59
48630;BME280;34426;52.180;4.462;2023-06-10T12:37:05;101558.34;;;31.70;30.97
48630;BME280;34426;52.180;4.462;2023-06-10T12:39:33;101561.84;;;31.87;30.83
48630;BME280;34426;52.180;4.462;2023-06-10T12:42:01;101565.50;;;32.21;30.09
48630;BME280;34426;52.180;4.462;2023-06-10T12:44:34;101557.94;;;32.53;29.90
48630;BME280;34426;52.180;4.462;2023-06-10T12:47:08;101566.44;;;32.76;30.60
48630;BME280;34426;52.180;4.462;2023-06-10T12:49:38;101559.81;;;33.48;28.32
48630;BME280;34426;52.180;4.462;2023-06-10T12:52:06;101548.25;;;33.59;27.40
48630;BME280;34426;52.180;4.462;2023-06-10T12:54:34;101562.44;;;33.82;27.87
48630;BME280;34426;52.180;4.462;2023-06-10T12:57:02;101556.69;;;34.10;27.43
48630;BME280;34426;52.180;4.462;2023-06-10T12:59:29;101560.47;;;34.57;27.64